sensor_id;sensor_type;location;lat;lon;timestamp;temperature;humidity
1135;DHT22;556;53.550;10.048;2022-10-31T00:00:15;16.30;57.20
1135;DHT22;556;53.550;10.048;2022-10-31T00:02:43;16.30;57.20
1135;DHT22;556;53.550;10.048;2022-10-31T00:05:10;16.30;57.20
1135;DHT22;556;53.550;10.048;2022-10-31T00:07:37;16.20;57.20
1135;DHT22;556;53.550;10.048;2022-10-31T00:10:05;16.20;57.30
1135;DHT22;556;53.550;10.048;2022-10-31T00:12:34;16.30;57.40
1135;DHT22;556;53.550;10.048;2022-10-31T00:15:01;16.20;57.30
1135;DHT22;556;53.550;10.048;2022-10-31T00:17:28;16.30;57.40
1135;DHT22;556;53.550;10.048;2022-10-31T00:19:55;16.30;57.40
1135;DHT22;556;53.550;10.048;2022-10-31T00:22:22;16.20;57.30
1135;DHT22;556;53.550;10.048;2022-10-31T00:24:49;16.30;57.40
1135;DHT22;556;53.550;10.048;2022-10-31T00:27:16;16.30;57.70
1135;DHT22;556;53.550;10.048;2022-10-31T00:29:45;16.30;57.40
1135;DHT22;556;53.550;10.048;2022-10-31T00:32:12;16.30;57.40
1135;DHT22;556;53.550;10.048;2022-10-31T00:34:39;16.30;57.40
1135;DHT22;556;53.550;10.048;2022-10-31T00:37:06;16.30;57.80
1135;DHT22;556;53.550;10.048;2022-10-31T00:42:02;16.20;57.30
1135;DHT22;556;53.550;10.048;2022-10-31T00:44:29;16.30;57.80
1135;DHT22;556;53.550;10.048;2022-10-31T00:46:58;16.20;57.30
1135;DHT22;556;53.550;10.048;2022-10-31T00:49:25;16.20;57.80
1135;DHT22;556;53.550;10.048;2022-10-31T00:51:52;16.20;57.40
1135;DHT22;556;53.550;10.048;2022-10-31T00:54:19;16.10;57.40
1135;DHT22;556;53.550;10.048;2022-10-31T00:56:46;16.20;57.40
1135;DHT22;556;53.550;10.048;2022-10-31T00:59:13;16.20;57.40
1135;DHT22;556;53.550;10.048;2022-10-31T01:01:41;16.20;57.40
1135;DHT22;556;53.550;10.048;2022-10-31T01:04:09;16.30;57.50
1135;DHT22;556;53.550;10.048;2022-10-31T01:06:36;16.20;57.40
1135;DHT22;556;53.550;10.048;2022-10-31T01:09:03;16.20;57.50
1135;DHT22;556;53.550;10.048;2022-10-31T01:11:30;16.20;57.60
1135;DHT22;556;53.550;10.048;2022-10-31T01:13:57;16.30;57.60
1135;DHT22;556;53.550;10.048;2022-10-31T01:16:27;16.40;58.20
1135;DHT22;556;53.550;10.048;2022-10-31T01:18:56;16.50;57.80
1135;DHT22;556;53.550;10.048;2022-10-31T01:21:28;16.60;57.80
1135;DHT22;556;53.550;10.048;2022-10-31T01:23:58;16.60;58.30
1135;DHT22;556;53.550;10.048;2022-10-31T01:26:29;16.70;57.80
1135;DHT22;556;53.550;10.048;2022-10-31T01:28:58;16.80;57.90
1135;DHT22;556;53.550;10.048;2022-10-31T01:31:26;16.80;58.00
1135;DHT22;556;53.550;10.048;2022-10-31T01:33:54;16.90;58.00
1135;DHT22;556;53.550;10.048;2022-10-31T01:36:22;16.90;58.00
1135;DHT22;556;53.550;10.048;2022-10-31T01:38:53;17.00;58.20
1135;DHT22;556;53.550;10.048;2022-10-31T01:41:22;17.00;58.10
1135;DHT22;556;53.550;10.048;2022-10-31T01:43:51;17.20;58.20
1135;DHT22;556;53.550;10.048;2022-10-31T01:46:22;17.20;58.10
1135;DHT22;556;53.550;10.048;2022-10-31T01:48:51;17.30;58.10
1135;DHT22;556;53.550;10.048;2022-10-31T01:51:21;17.30;58.00
1135;DHT22;556;53.550;10.048;2022-10-31T01:53:52;17.30;58.10
1135;DHT22;556;53.550;10.048;2022-10-31T01:56:22;17.30;58.10
1135;DHT22;556;53.550;10.048;2022-10-31T01:58:50;17.30;58.20
1135;DHT22;556;53.550;10.048;2022-10-31T02:01:18;17.30;58.30
1135;DHT22;556;53.550;10.048;2022-10-31T02:03:46;17.30;58.80
1135;DHT22;556;53.550;10.048;2022-10-31T02:06:21;17.30;58.40
1135;DHT22;556;53.550;10.048;2022-10-31T02:11:20;17.30;58.40
1135;DHT22;556;53.550;10.048;2022-10-31T02:13:48;17.30;58.40
1135;DHT22;556;53.550;10.048;2022-10-31T02:16:15;17.30;58.50
1135;DHT22;556;53.550;10.048;2022-10-31T02:18:43;17.30;58.50
1135;DHT22;556;53.550;10.048;2022-10-31T02:21:15;17.30;58.50
1135;DHT22;556;53.550;10.048;2022-10-31T02:24:19;17.30;58.60
1135;DHT22;556;53.550;10.048;2022-10-31T02:27:01;17.40;58.70
1135;DHT22;556;53.550;10.048;2022-10-31T02:30:04;17.30;58.60
1135;DHT22;556;53.550;10.048;2022-10-31T02:32:45;17.30;58.60
1135;DHT22;556;53.550;10.048;2022-10-31T02:35:23;17.30;58.70
1135;DHT22;556;53.550;10.048;2022-10-31T02:38:00;17.30;58.70
1135;DHT22;556;53.550;10.048;2022-10-31T02:40:33;17.30;58.60
1135;DHT22;556;53.550;10.048;2022-10-31T02:43:27;17.30;58.60
1135;DHT22;556;53.550;10.048;2022-10-31T02:45:58;17.30;58.60
1135;DHT22;556;53.550;10.048;2022-10-31T02:48:33;17.30;58.70
1135;DHT22;556;53.550;10.048;2022-10-31T02:51:03;17.20;58.70
1135;DHT22;556;53.550;10.048;2022-10-31T02:53:32;17.20;58.80
1135;DHT22;556;53.550;10.048;2022-10-31T02:56:02;17.10;58.80
1135;DHT22;556;53.550;10.048;2022-10-31T02:58:32;17.10;59.20
1135;DHT22;556;53.550;10.048;2022-10-31T03:01:14;17.10;58.90
1135;DHT22;556;53.550;10.048;2022-10-31T03:04:16;17.10;58.90
1135;DHT22;556;53.550;10.048;2022-10-31T03:06:49;17.00;58.90
1135;DHT22;556;53.550;10.048;2022-10-31T03:09:23;17.00;59.00
1135;DHT22;556;53.550;10.048;2022-10-31T03:11:58;17.00;59.00
1135;DHT22;556;53.550;10.048;2022-10-31T03:14:35;16.90;59.00
1135;DHT22;556;53.550;10.048;2022-10-31T03:17:07;16.90;59.00
1135;DHT22;556;53.550;10.048;2022-10-31T03:19:41;16.80;59.00
1135;DHT22;556;53.550;10.048;2022-10-31T03:22:16;16.80;59.10
1135;DHT22;556;53.550;10.048;2022-10-31T03:24:45;16.70;59.00
1135;DHT22;556;53.550;10.048;2022-10-31T03:27:16;16.80;59.10
1135;DHT22;556;53.550;10.048;2022-10-31T03:29:45;16.70;59.10
1135;DHT22;556;53.550;10.048;2022-10-31T03:32:17;16.70;59.10
1135;DHT22;556;53.550;10.048;2022-10-31T03:34:47;16.70;59.20
1135;DHT22;556;53.550;10.048;2022-10-31T03:37:18;16.60;59.10
1135;DHT22;556;53.550;10.048;2022-10-31T03:39:48;16.60;59.20
1135;DHT22;556;53.550;10.048;2022-10-31T03:42:20;16.60;59.20
1135;DHT22;556;53.550;10.048;2022-10-31T03:44:55;16.70;59.30
1135;DHT22;556;53.550;10.048;2022-10-31T03:47:26;16.70;59.80
1135;DHT22;556;53.550;10.048;2022-10-31T03:49:55;16.70;59.60
1135;DHT22;556;53.550;10.048;2022-10-31T03:52:27;16.60;59.30
1135;DHT22;556;53.550;10.048;2022-10-31T03:54:58;16.70;59.80
1135;DHT22;556;53.550;10.048;2022-10-31T03:57:33;16.60;59.30
1135;DHT22;556;53.550;10.048;2022-10-31T04:00:06;16.60;59.30
1135;DHT22;556;53.550;10.048;2022-10-31T04:02:47;16.60;59.40
1135;DHT22;556;53.550;10.048;2022-10-31T04:05:18;16.60;59.40
1135;DHT22;556;53.550;10.048;2022-10-31T04:07:48;16.60;59.90
1135;DHT22;556;53.550;10.048;2022-10-31T04:10:18;16.60;59.50
1135;DHT22;556;53.550;10.048;2022-10-31T04:12:50;16.60;59.50
1135;DHT22;556;53.550;10.048;2022-10-31T04:15:25;16.60;59.50
1135;DHT22;556;53.550;10.048;2022-10-31T04:17:56;16.60;59.50
1135;DHT22;556;53.550;10.048;2022-10-31T04:20:37;16.60;59.50
1135;DHT22;556;53.550;10.048;2022-10-31T04:23:08;16.60;59.60
1135;DHT22;556;53.550;10.048;2022-10-31T04:25:41;16.50;59.50
1135;DHT22;556;53.550;10.048;2022-10-31T04:28:09;16.50;59.50
1135;DHT22;556;53.550;10.048;2022-10-31T04:30:36;16.50;59.60
1135;DHT22;556;53.550;10.048;2022-10-31T04:33:03;16.50;60.00
1135;DHT22;556;53.550;10.048;2022-10-31T04:35:30;16.50;60.20
1135;DHT22;556;53.550;10.048;2022-10-31T04:37:59;16.50;59.70
1135;DHT22;556;53.550;10.048;2022-10-31T04:40:26;16.50;59.60
1135;DHT22;556;53.550;10.048;2022-10-31T04:43:13;16.50;59.60
1135;DHT22;556;53.550;10.048;2022-10-31T04:45:42;16.50;59.50
1135;DHT22;556;53.550;10.048;2022-10-31T04:48:09;16.40;59.50
1135;DHT22;556;53.550;10.048;2022-10-31T04:50:38;16.40;60.00
1135;DHT22;556;53.550;10.048;2022-10-31T04:53:08;16.40;59.70
1135;DHT22;556;53.550;10.048;2022-10-31T04:55:45;16.40;59.70
1135;DHT22;556;53.550;10.048;2022-10-31T04:58:17;16.50;59.70
1135;DHT22;556;53.550;10.048;2022-10-31T05:00:44;16.50;60.20
1135;DHT22;556;53.550;10.048;2022-10-31T05:03:12;16.50;59.60
1135;DHT22;556;53.550;10.048;2022-10-31T05:05:41;16.60;59.70
1135;DHT22;556;53.550;10.048;2022-10-31T05:08:09;16.60;59.60
1135;DHT22;556;53.550;10.048;2022-10-31T05:10:37;16.60;59.70
1135;DHT22;556;53.550;10.048;2022-10-31T05:13:04;16.60;59.70
1135;DHT22;556;53.550;10.048;2022-10-31T05:16:07;16.60;59.70
1135;DHT22;556;53.550;10.048;2022-10-31T05:18:40;16.60;59.70
1135;DHT22;556;53.550;10.048;2022-10-31T05:21:25;16.60;59.60
1135;DHT22;556;53.550;10.048;2022-10-31T05:23:59;16.70;59.60
1135;DHT22;556;53.550;10.048;2022-10-31T05:26:27;16.70;60.00
1135;DHT22;556;53.550;10.048;2022-10-31T05:28:54;16.70;60.10
1135;DHT22;556;53.550;10.048;2022-10-31T05:31:22;16.70;59.70
1135;DHT22;556;53.550;10.048;2022-10-31T05:33:51;16.70;59.70
1135;DHT22;556;53.550;10.048;2022-10-31T05:36:37;16.70;59.80
1135;DHT22;556;53.550;10.048;2022-10-31T05:39:12;16.70;60.20
1135;DHT22;556;53.550;10.048;2022-10-31T05:41:42;16.70;59.80
1135;DHT22;556;53.550;10.048;2022-10-31T05:44:15;16.80;59.80
1135;DHT22;556;53.550;10.048;2022-10-31T05:46:56;16.80;59.70
1135;DHT22;556;53.550;10.048;2022-10-31T05:49:42;16.80;59.60
1135;DHT22;556;53.550;10.048;2022-10-31T05:52:27;17.00;59.60
1135;DHT22;556;53.550;10.048;2022-10-31T05:55:08;17.00;59.60
1135;DHT22;556;53.550;10.048;2022-10-31T05:57:36;17.00;59.60
1135;DHT22;556;53.550;10.048;2022-10-31T06:00:04;17.00;59.60
1135;DHT22;556;53.550;10.048;2022-10-31T06:02:34;17.00;59.70
1135;DHT22;556;53.550;10.048;2022-10-31T06:05:39;16.90;59.80
1135;DHT22;556;53.550;10.048;2022-10-31T06:08:07;17.00;59.80
1135;DHT22;556;53.550;10.048;2022-10-31T06:10:36;17.00;59.80
1135;DHT22;556;53.550;10.048;2022-10-31T06:13:02;17.10;59.80
1135;DHT22;556;53.550;10.048;2022-10-31T06:15:44;17.10;59.70
1135;DHT22;556;53.550;10.048;2022-10-31T06:18:12;17.20;59.70
1135;DHT22;556;53.550;10.048;2022-10-31T06:20:47;17.20;59.60
1135;DHT22;556;53.550;10.048;2022-10-31T06:23:15;17.20;59.70
1135;DHT22;556;53.550;10.048;2022-10-31T06:25:48;17.30;59.80
1135;DHT22;556;53.550;10.048;2022-10-31T06:28:16;17.40;59.70
1135;DHT22;556;53.550;10.048;2022-10-31T06:31:06;17.40;59.60
1135;DHT22;556;53.550;10.048;2022-10-31T06:33:34;17.50;59.60
1135;DHT22;556;53.550;10.048;2022-10-31T06:36:02;17.60;59.60
1135;DHT22;556;53.550;10.048;2022-10-31T06:38:29;17.60;59.50
1135;DHT22;556;53.550;10.048;2022-10-31T06:41:02;17.60;59.50
1135;DHT22;556;53.550;10.048;2022-10-31T06:43:38;17.60;59.60
1135;DHT22;556;53.550;10.048;2022-10-31T06:46:18;17.80;59.70
1135;DHT22;556;53.550;10.048;2022-10-31T06:49:04;17.90;59.50
1135;DHT22;556;53.550;10.048;2022-10-31T06:51:37;17.80;59.50
1135;DHT22;556;53.550;10.048;2022-10-31T06:54:04;17.80;59.50
1135;DHT22;556;53.550;10.048;2022-10-31T06:59:01;17.70;59.70
1135;DHT22;556;53.550;10.048;2022-10-31T07:01:48;17.70;59.90
1135;DHT22;556;53.550;10.048;2022-10-31T07:04:16;17.60;59.80
1135;DHT22;556;53.550;10.048;2022-10-31T07:06:45;17.60;59.90
1135;DHT22;556;53.550;10.048;2022-10-31T07:09:12;17.60;59.80
1135;DHT22;556;53.550;10.048;2022-10-31T07:11:41;17.60;59.70
1135;DHT22;556;53.550;10.048;2022-10-31T07:14:08;17.60;59.80
1135;DHT22;556;53.550;10.048;2022-10-31T07:16:35;17.60;59.90
1135;DHT22;556;53.550;10.048;2022-10-31T07:19:03;17.60;59.80
1135;DHT22;556;53.550;10.048;2022-10-31T07:21:30;17.50;59.70
1135;DHT22;556;53.550;10.048;2022-10-31T07:23:57;17.50;59.90
1135;DHT22;556;53.550;10.048;2022-10-31T07:26:45;17.50;59.80
1135;DHT22;556;53.550;10.048;2022-10-31T07:29:14;17.40;59.80
1135;DHT22;556;53.550;10.048;2022-10-31T07:31:41;17.50;60.40
1135;DHT22;556;53.550;10.048;2022-10-31T07:34:14;17.40;59.80
1135;DHT22;556;53.550;10.048;2022-10-31T07:37:00;17.30;59.80
1135;DHT22;556;53.550;10.048;2022-10-31T07:39:28;17.30;60.00
1135;DHT22;556;53.550;10.048;2022-10-31T07:41:57;17.30;59.90
1135;DHT22;556;53.550;10.048;2022-10-31T07:44:25;17.40;59.60
1135;DHT22;556;53.550;10.048;2022-10-31T07:46:52;17.40;59.80
1135;DHT22;556;53.550;10.048;2022-10-31T07:49:37;17.40;59.80
1135;DHT22;556;53.550;10.048;2022-10-31T07:52:23;17.40;59.80
1135;DHT22;556;53.550;10.048;2022-10-31T07:55:20;17.50;59.80
1135;DHT22;556;53.550;10.048;2022-10-31T07:57:57;17.50;60.20
1135;DHT22;556;53.550;10.048;2022-10-31T08:00:25;17.50;59.50
1135;DHT22;556;53.550;10.048;2022-10-31T08:02:59;17.60;59.60
1135;DHT22;556;53.550;10.048;2022-10-31T08:05:59;17.60;59.80
1135;DHT22;556;53.550;10.048;2022-10-31T08:08:41;17.70;60.30
1135;DHT22;556;53.550;10.048;2022-10-31T08:11:09;17.90;59.70
1135;DHT22;556;53.550;10.048;2022-10-31T08:13:38;17.90;59.90
1135;DHT22;556;53.550;10.048;2022-10-31T08:16:06;18.20;59.50
1135;DHT22;556;53.550;10.048;2022-10-31T08:18:37;18.30;59.30
1135;DHT22;556;53.550;10.048;2022-10-31T08:21:06;18.50;59.30
1135;DHT22;556;53.550;10.048;2022-10-31T08:23:33;18.60;59.40
1135;DHT22;556;53.550;10.048;2022-10-31T08:26:00;18.70;59.30
1135;DHT22;556;53.550;10.048;2022-10-31T08:28:27;18.80;59.20
1135;DHT22;556;53.550;10.048;2022-10-31T08:30:57;18.80;59.40
1135;DHT22;556;53.550;10.048;2022-10-31T08:33:39;18.90;59.30
1135;DHT22;556;53.550;10.048;2022-10-31T08:36:18;19.00;59.70
1135;DHT22;556;53.550;10.048;2022-10-31T08:38:54;19.20;59.30
1135;DHT22;556;53.550;10.048;2022-10-31T08:41:21;19.30;59.10
1135;DHT22;556;53.550;10.048;2022-10-31T08:43:48;19.30;59.20
1135;DHT22;556;53.550;10.048;2022-10-31T08:46:17;19.20;59.20
1135;DHT22;556;53.550;10.048;2022-10-31T08:48:46;19.30;59.30
1135;DHT22;556;53.550;10.048;2022-10-31T08:51:14;19.20;59.10
1135;DHT22;556;53.550;10.048;2022-10-31T08:53:42;19.10;59.70
1135;DHT22;556;53.550;10.048;2022-10-31T08:56:34;19.00;59.20
1135;DHT22;556;53.550;10.048;2022-10-31T08:59:06;19.00;59.30
1135;DHT22;556;53.550;10.048;2022-10-31T09:01:48;18.90;59.00
1135;DHT22;556;53.550;10.048;2022-10-31T09:04:15;18.80;59.20
1135;DHT22;556;53.550;10.048;2022-10-31T09:06:42;18.70;59.40
1135;DHT22;556;53.550;10.048;2022-10-31T09:09:09;18.70;59.30
1135;DHT22;556;53.550;10.048;2022-10-31T09:11:43;18.70;59.20
1135;DHT22;556;53.550;10.048;2022-10-31T09:14:10;18.70;59.30
1135;DHT22;556;53.550;10.048;2022-10-31T09:17:13;18.80;59.30
1135;DHT22;556;53.550;10.048;2022-10-31T09:19:55;18.90;59.10
1135;DHT22;556;53.550;10.048;2022-10-31T09:22:29;19.00;59.10
1135;DHT22;556;53.550;10.048;2022-10-31T09:24:56;19.10;59.00
1135;DHT22;556;53.550;10.048;2022-10-31T09:27:23;19.10;59.50
1135;DHT22;556;53.550;10.048;2022-10-31T09:29:52;19.40;58.90
1135;DHT22;556;53.550;10.048;2022-10-31T09:32:21;19.50;58.80
1135;DHT22;556;53.550;10.048;2022-10-31T09:34:48;19.60;58.70
1135;DHT22;556;53.550;10.048;2022-10-31T09:37:19;19.60;59.10
1135;DHT22;556;53.550;10.048;2022-10-31T09:39:46;19.80;58.60
1135;DHT22;556;53.550;10.048;2022-10-31T09:42:34;19.90;58.50
1135;DHT22;556;53.550;10.048;2022-10-31T09:45:16;20.10;58.40
1135;DHT22;556;53.550;10.048;2022-10-31T09:47:58;20.10;58.30
1135;DHT22;556;53.550;10.048;2022-10-31T09:50:38;20.00;58.50
1135;DHT22;556;53.550;10.048;2022-10-31T09:53:32;19.90;58.30
1135;DHT22;556;53.550;10.048;2022-10-31T09:56:04;19.80;58.30
1135;DHT22;556;53.550;10.048;2022-10-31T09:58:37;19.80;58.50
1135;DHT22;556;53.550;10.048;2022-10-31T10:01:05;19.80;58.40
1135;DHT22;556;53.550;10.048;2022-10-31T10:03:38;19.80;58.90
1135;DHT22;556;53.550;10.048;2022-10-31T10:06:28;20.00;58.00
1135;DHT22;556;53.550;10.048;2022-10-31T10:09:27;19.90;58.10
1135;DHT22;556;53.550;10.048;2022-10-31T10:12:42;19.90;58.20
1135;DHT22;556;53.550;10.048;2022-10-31T10:15:35;20.00;58.10
1135;DHT22;556;53.550;10.048;2022-10-31T10:18:12;20.00;58.00
1135;DHT22;556;53.550;10.048;2022-10-31T10:20:50;20.20;57.70
1135;DHT22;556;53.550;10.048;2022-10-31T10:23:35;20.10;57.80
1135;DHT22;556;53.550;10.048;2022-10-31T10:26:12;20.10;57.70
1135;DHT22;556;53.550;10.048;2022-10-31T10:28:44;20.10;57.60
1135;DHT22;556;53.550;10.048;2022-10-31T10:31:14;20.10;57.70
1135;DHT22;556;53.550;10.048;2022-10-31T10:33:46;20.00;57.80
1135;DHT22;556;53.550;10.048;2022-10-31T10:36:22;19.90;57.80
1135;DHT22;556;53.550;10.048;2022-10-31T10:38:54;19.90;58.30
1135;DHT22;556;53.550;10.048;2022-10-31T10:41:24;20.00;57.70
1135;DHT22;556;53.550;10.048;2022-10-31T10:43:54;20.10;57.50
1135;DHT22;556;53.550;10.048;2022-10-31T10:46:26;20.00;57.50
1135;DHT22;556;53.550;10.048;2022-10-31T10:49:16;20.10;57.40
1135;DHT22;556;53.550;10.048;2022-10-31T10:51:48;20.10;57.90
1135;DHT22;556;53.550;10.048;2022-10-31T10:54:45;20.30;57.40
1135;DHT22;556;53.550;10.048;2022-10-31T10:57:21;20.30;57.30
1135;DHT22;556;53.550;10.048;2022-10-31T10:59:49;20.30;57.90
1135;DHT22;556;53.550;10.048;2022-10-31T11:02:20;20.30;57.40
1135;DHT22;556;53.550;10.048;2022-10-31T11:04:51;20.30;57.50
1135;DHT22;556;53.550;10.048;2022-10-31T11:07:21;20.30;57.40
1135;DHT22;556;53.550;10.048;2022-10-31T11:09:48;20.30;57.70
1135;DHT22;556;53.550;10.048;2022-10-31T11:12:21;20.50;57.10
1135;DHT22;556;53.550;10.048;2022-10-31T11:14:52;20.50;56.90
1135;DHT22;556;53.550;10.048;2022-10-31T11:17:27;20.60;57.40
1135;DHT22;556;53.550;10.048;2022-10-31T11:20:03;20.80;56.60
1135;DHT22;556;53.550;10.048;2022-10-31T11:22:31;20.80;56.50
1135;DHT22;556;53.550;10.048;2022-10-31T11:24:58;21.00;56.50
1135;DHT22;556;53.550;10.048;2022-10-31T11:27:26;21.10;56.50
1135;DHT22;556;53.550;10.048;2022-10-31T11:30:04;21.10;56.40
1135;DHT22;556;53.550;10.048;2022-10-31T11:32:32;21.10;56.40
1135;DHT22;556;53.550;10.048;2022-10-31T11:35:01;21.20;56.40
1135;DHT22;556;53.550;10.048;2022-10-31T11:40:05;21.50;56.10
1135;DHT22;556;53.550;10.048;2022-10-31T11:42:36;21.50;55.90
1135;DHT22;556;53.550;10.048;2022-10-31T11:45:14;21.60;56.00
1135;DHT22;556;53.550;10.048;2022-10-31T11:47:43;21.60;55.90
1135;DHT22;556;53.550;10.048;2022-10-31T11:50:18;21.70;55.80
1135;DHT22;556;53.550;10.048;2022-10-31T11:52:48;21.80;55.70
1135;DHT22;556;53.550;10.048;2022-10-31T11:55:26;21.70;55.70
1135;DHT22;556;53.550;10.048;2022-10-31T11:57:56;21.70;55.70
1135;DHT22;556;53.550;10.048;2022-10-31T12:00:25;21.60;55.80
1135;DHT22;556;53.550;10.048;2022-10-31T12:03:04;21.60;55.80
1135;DHT22;556;53.550;10.048;2022-10-31T12:05:37;21.60;55.70
1135;DHT22;556;53.550;10.048;2022-10-31T12:08:09;21.40;55.70
1135;DHT22;556;53.550;10.048;2022-10-31T12:10:44;21.40;55.80
1135;DHT22;556;53.550;10.048;2022-10-31T12:13:29;21.50;55.70
1135;DHT22;556;53.550;10.048;2022-10-31T12:16:02;21.70;55.40
1135;DHT22;556;53.550;10.048;2022-10-31T12:21:42;21.70;55.10
1135;DHT22;556;53.550;10.048;2022-10-31T12:24:22;21.70;55.20
1135;DHT22;556;53.550;10.048;2022-10-31T12:27:00;21.70;55.30
1135;DHT22;556;53.550;10.048;2022-10-31T12:29:48;21.70;55.10
1135;DHT22;556;53.550;10.048;2022-10-31T12:32:25;21.80;55.10
1135;DHT22;556;53.550;10.048;2022-10-31T12:35:26;21.80;55.00
1135;DHT22;556;53.550;10.048;2022-10-31T12:38:08;21.70;55.00
1135;DHT22;556;53.550;10.048;2022-10-31T12:40:51;21.50;55.10
1135;DHT22;556;53.550;10.048;2022-10-31T12:43:35;21.40;55.10
1135;DHT22;556;53.550;10.048;2022-10-31T12:46:04;21.40;55.10
1135;DHT22;556;53.550;10.048;2022-10-31T12:48:55;21.30;55.00
1135;DHT22;556;53.550;10.048;2022-10-31T12:51:29;21.30;55.00
1135;DHT22;556;53.550;10.048;2022-10-31T12:54:22;21.20;55.00
1135;DHT22;556;53.550;10.048;2022-10-31T12:56:58;21.10;55.00
1135;DHT22;556;53.550;10.048;2022-10-31T12:59:31;21.10;55.00
1135;DHT22;556;53.550;10.048;2022-10-31T13:02:04;21.10;54.90
1135;DHT22;556;53.550;10.048;2022-10-31T13:04:42;21.10;55.00
1135;DHT22;556;53.550;10.048;2022-10-31T13:07:13;21.30;54.90
1135;DHT22;556;53.550;10.048;2022-10-31T13:09:46;21.70;54.70
1135;DHT22;556;53.550;10.048;2022-10-31T13:12:18;22.00;54.50
1135;DHT22;556;53.550;10.048;2022-10-31T13:14:49;22.20;54.30
1135;DHT22;556;53.550;10.048;2022-10-31T13:17:22;22.10;54.30
1135;DHT22;556;53.550;10.048;2022-10-31T13:19:56;22.00;54.40
1135;DHT22;556;53.550;10.048;2022-10-31T13:22:29;21.70;54.40
1135;DHT22;556;53.550;10.048;2022-10-31T13:25:02;21.60;54.40
1135;DHT22;556;53.550;10.048;2022-10-31T13:27:39;21.30;54.60
1135;DHT22;556;53.550;10.048;2022-10-31T13:30:14;21.10;54.50
1135;DHT22;556;53.550;10.048;2022-10-31T13:32:47;21.00;54.70
1135;DHT22;556;53.550;10.048;2022-10-31T13:35:19;21.00;54.70
1135;DHT22;556;53.550;10.048;2022-10-31T13:37:54;21.30;54.90
1135;DHT22;556;53.550;10.048;2022-10-31T13:40:33;21.80;54.90
1135;DHT22;556;53.550;10.048;2022-10-31T13:43:10;22.90;54.80
1135;DHT22;556;53.550;10.048;2022-10-31T13:45:48;23.30;54.60
1135;DHT22;556;53.550;10.048;2022-10-31T13:48:35;24.60;54.60
1135;DHT22;556;53.550;10.048;2022-10-31T13:51:05;25.30;54.20
1135;DHT22;556;53.550;10.048;2022-10-31T13:53:58;25.60;54.70
1135;DHT22;556;53.550;10.048;2022-10-31T13:56:26;26.20;53.90
1135;DHT22;556;53.550;10.048;2022-10-31T14:01:27;26.40;53.20
1135;DHT22;556;53.550;10.048;2022-10-31T14:04:02;26.50;53.10
1135;DHT22;556;53.550;10.048;2022-10-31T14:06:38;26.60;53.50
1135;DHT22;556;53.550;10.048;2022-10-31T14:09:29;26.50;52.30
1135;DHT22;556;53.550;10.048;2022-10-31T14:12:01;26.10;52.30
1135;DHT22;556;53.550;10.048;2022-10-31T14:14:52;26.00;52.10
1135;DHT22;556;53.550;10.048;2022-10-31T14:17:24;25.80;52.30
1135;DHT22;556;53.550;10.048;2022-10-31T14:20:01;25.80;52.20
1135;DHT22;556;53.550;10.048;2022-10-31T14:22:30;25.80;52.20
1135;DHT22;556;53.550;10.048;2022-10-31T14:24:57;25.90;51.90
1135;DHT22;556;53.550;10.048;2022-10-31T14:27:44;25.80;51.70
1135;DHT22;556;53.550;10.048;2022-10-31T14:30:19;25.60;51.60
1135;DHT22;556;53.550;10.048;2022-10-31T14:32:51;25.40;51.60
1135;DHT22;556;53.550;10.048;2022-10-31T14:35:20;25.40;51.90
1135;DHT22;556;53.550;10.048;2022-10-31T14:38:08;25.20;51.80
1135;DHT22;556;53.550;10.048;2022-10-31T14:40:53;24.90;51.20
1135;DHT22;556;53.550;10.048;2022-10-31T14:43:39;24.50;51.10
1135;DHT22;556;53.550;10.048;2022-10-31T14:46:17;24.40;51.40
1135;DHT22;556;53.550;10.048;2022-10-31T14:49:04;24.00;51.40
1135;DHT22;556;53.550;10.048;2022-10-31T14:51:39;23.30;50.70
1135;DHT22;556;53.550;10.048;2022-10-31T14:54:11;23.10;50.60
1135;DHT22;556;53.550;10.048;2022-10-31T14:56:47;22.60;50.70
1135;DHT22;556;53.550;10.048;2022-10-31T14:59:18;22.30;50.60
1135;DHT22;556;53.550;10.048;2022-10-31T15:01:54;21.80;50.70
1135;DHT22;556;53.550;10.048;2022-10-31T15:04:25;21.50;50.80
1135;DHT22;556;53.550;10.048;2022-10-31T15:06:57;21.30;50.80
1135;DHT22;556;53.550;10.048;2022-10-31T15:09:26;21.10;50.80
1135;DHT22;556;53.550;10.048;2022-10-31T15:11:54;20.90;50.70
1135;DHT22;556;53.550;10.048;2022-10-31T15:14:23;20.70;50.70
1135;DHT22;556;53.550;10.048;2022-10-31T15:16:53;20.50;50.70
1135;DHT22;556;53.550;10.048;2022-10-31T15:19:23;20.30;50.70
1135;DHT22;556;53.550;10.048;2022-10-31T15:21:52;20.10;50.80
1135;DHT22;556;53.550;10.048;2022-10-31T15:24:20;20.00;50.80
1135;DHT22;556;53.550;10.048;2022-10-31T15:26:49;19.80;50.80
1135;DHT22;556;53.550;10.048;2022-10-31T15:29:18;19.50;50.80
1135;DHT22;556;53.550;10.048;2022-10-31T15:31:52;19.40;51.00
1135;DHT22;556;53.550;10.048;2022-10-31T15:34:24;19.30;51.40
1135;DHT22;556;53.550;10.048;2022-10-31T15:39:20;19.10;50.90
1135;DHT22;556;53.550;10.048;2022-10-31T15:41:49;19.10;51.00
1135;DHT22;556;53.550;10.048;2022-10-31T15:46:54;18.90;50.90
1135;DHT22;556;53.550;10.048;2022-10-31T15:49:32;18.90;51.00
1135;DHT22;556;53.550;10.048;2022-10-31T15:52:11;18.70;51.10
1135;DHT22;556;53.550;10.048;2022-10-31T15:54:45;18.60;51.10
1135;DHT22;556;53.550;10.048;2022-10-31T15:57:13;18.50;51.20
1135;DHT22;556;53.550;10.048;2022-10-31T15:59:42;18.40;51.30
1135;DHT22;556;53.550;10.048;2022-10-31T16:02:17;18.20;51.20
1135;DHT22;556;53.550;10.048;2022-10-31T16:04:52;18.00;51.50
1135;DHT22;556;53.550;10.048;2022-10-31T16:07:21;18.00;51.60
1135;DHT22;556;53.550;10.048;2022-10-31T16:09:50;17.90;51.60
1135;DHT22;556;53.550;10.048;2022-10-31T16:12:17;17.90;51.60
1135;DHT22;556;53.550;10.048;2022-10-31T16:14:44;17.90;51.60
1135;DHT22;556;53.550;10.048;2022-10-31T16:17:14;17.90;51.60
1135;DHT22;556;53.550;10.048;2022-10-31T16:19:49;17.80;51.80
1135;DHT22;556;53.550;10.048;2022-10-31T16:22:24;17.80;51.80
1135;DHT22;556;53.550;10.048;2022-10-31T16:24:55;17.80;51.80
1135;DHT22;556;53.550;10.048;2022-10-31T16:27:25;17.80;51.90
1135;DHT22;556;53.550;10.048;2022-10-31T16:29:55;17.80;51.80
1135;DHT22;556;53.550;10.048;2022-10-31T16:35:00;17.80;52.00
1135;DHT22;556;53.550;10.048;2022-10-31T16:37:27;17.90;52.00
1135;DHT22;556;53.550;10.048;2022-10-31T16:39:55;17.90;52.00
1135;DHT22;556;53.550;10.048;2022-10-31T16:42:22;17.90;52.00
1135;DHT22;556;53.550;10.048;2022-10-31T16:44:50;17.90;52.20
1135;DHT22;556;53.550;10.048;2022-10-31T16:47:17;17.90;52.10
1135;DHT22;556;53.550;10.048;2022-10-31T16:49:47;17.90;52.20
1135;DHT22;556;53.550;10.048;2022-10-31T16:52:16;17.90;52.70
1135;DHT22;556;53.550;10.048;2022-10-31T16:54:43;17.90;52.30
1135;DHT22;556;53.550;10.048;2022-10-31T16:57:14;18.00;52.40
1135;DHT22;556;53.550;10.048;2022-10-31T16:59:42;18.00;52.30
1135;DHT22;556;53.550;10.048;2022-10-31T17:02:13;18.00;52.40
1135;DHT22;556;53.550;10.048;2022-10-31T17:04:41;18.00;52.40